Time;durP1;ratioP1;P1;durP2;ratioP2;P2;SDS_P1;SDS_P2;PMS_P1;PMS_P2;Temp;Humidity;BMP_temperature;BMP_pressure;BME280_temperature;BME280_humidity;BME280_pressure;Samples;Min_cycle;Max_cycle;Signal;HPM_P1;HPM_P2
2023/11/15 00:01:06;;;;;;;6.68;1.10;;;7.50;99.90;;;;;;5120375;27;20046;-64
2023/11/15 00:03:32;;;;;;;2.03;0.80;;;7.50;99.90;;;;;;5121018;27;20046;-65
2023/11/15 00:05:58;;;;;;;1.60;0.65;;;7.50;99.90;;;;;;5118975;27;20038;-65
2023/11/15 00:08:24;;;;;;;5.85;1.00;;;7.50;99.90;;;;;;5120098;27;20561;-66
2023/11/15 00:10:50;;;;;;;3.92;1.10;;;7.60;99.90;;;;;;5116949;27;20054;-65
2023/11/15 00:13:15;;;;;;;;;;;7.60;99.90;;;;;;5121706;27;20047;-67
2023/11/15 00:15:41;;;;;;;2.90;0.65;;;7.50;99.90;;;;;;5121095;27;19950;-65
2023/11/15 00:18:06;;;;;;;3.33;0.98;;;7.60;99.90;;;;;;5105726;27;20059;-65
2023/11/15 00:20:35;;;;;;;;;;;7.60;99.90;;;;;;5106986;28;20046;-66
2023/11/15 00:23:03;;;;;;;2.17;0.50;;;7.60;99.90;;;;;;5102790;27;19916;-65
2023/11/15 00:25:30;;;;;;;4.80;0.60;;;7.60;99.90;;;;;;5106953;28;20126;-66
2023/11/15 00:27:55;;;;;;;2.20;0.88;;;7.60;99.90;;;;;;5107406;28;20100;-66
2023/11/15 00:30:22;;;;;;;2.35;0.77;;;7.60;99.90;;;;;;5106320;28;20047;-65
2023/11/15 00:32:48;;;;;;;4.03;1.20;;;7.70;99.90;;;;;;5100468;28;20514;-64
2023/11/15 00:35:14;;;;;;;3.20;1.10;;;7.60;99.90;;;;;;5107199;28;20074;-64
2023/11/15 00:37:42;;;;;;;4.22;1.17;;;7.60;99.90;;;;;;5106959;28;20044;-66
2023/11/15 00:40:10;;;;;;;4.57;1.48;;;7.70;99.90;;;;;;5107521;28;20595;-65
2023/11/15 00:42:36;;;;;;;4.90;1.35;;;7.70;99.90;;;;;;5104538;27;20067;-65
2023/11/15 00:45:04;;;;;;;2.45;1.13;;;7.70;99.90;;;;;;5107426;28;20283;-65
2023/11/15 00:47:31;;;;;;;5.13;1.50;;;7.70;99.90;;;;;;5104233;28;20054;-65
2023/11/15 00:49:57;;;;;;;6.72;1.65;;;7.70;99.90;;;;;;5106812;28;20650;-64
2023/11/15 00:52:22;;;;;;;6.72;1.70;;;7.70;99.90;;;;;;5103742;27;20065;-64
2023/11/15 00:54:48;;;;;;;7.97;1.45;;;7.70;99.90;;;;;;5103575;28;20043;-65
2023/11/15 00:57:14;;;;;;;5.80;1.40;;;7.70;99.90;;;;;;5109875;27;20050;-64
2023/11/15 00:59:44;;;;;;;4.78;1.48;;;7.70;99.90;;;;;;5106063;28;20040;-65
2023/11/15 01:02:11;;;;;;;3.13;1.50;;;7.80;99.90;;;;;;5104364;27;20104;-65
2023/11/15 01:04:37;;;;;;;5.65;1.73;;;7.80;99.90;;;;;;5103633;28;20126;-64
2023/11/15 01:07:03;;;;;;;9.88;1.92;;;7.80;99.90;;;;;;5106706;28;20040;-65
2023/11/15 01:09:29;;;;;;;3.75;1.83;;;7.70;99.90;;;;;;5106059;28;20684;-65
2023/11/15 01:11:55;;;;;;;6.43;2.47;;;7.70;99.90;;;;;;5105585;27;20619;-65
2023/11/15 01:14:21;;;;;;;6.75;2.00;;;7.70;99.90;;;;;;5104484;28;20423;-65
2023/11/15 01:16:46;;;;;;;4.45;2.00;;;7.70;99.90;;;;;;5103467;28;20073;-65
2023/11/15 01:19:12;;;;;;;;;;;7.70;99.90;;;;;;5103726;28;20043;-65
2023/11/15 01:21:37;;;;;;;7.63;1.90;;;7.70;99.90;;;;;;5105928;27;19919;-65
2023/11/15 01:24:03;;;;;;;4.85;1.25;;;7.70;99.90;;;;;;5106162;28;20101;-64
2023/11/15 01:26:29;;;;;;;4.55;1.30;;;7.70;99.90;;;;;;5105638;28;20048;-66
2023/11/15 01:28:57;;;;;;;;;;;7.70;99.90;;;;;;5105711;27;20734;-65
2023/11/15 01:31:23;;;;;;;4.90;1.70;;;7.70;99.90;;;;;;5102309;28;20395;-65
2023/11/15 01:33:49;;;;;;;4.97;1.70;;;7.70;99.90;;;;;;5105188;28;20043;-65
2023/11/15 01:36:15;;;;;;;4.88;1.17;;;7.70;99.90;;;;;;5110421;27;20179;-65
2023/11/15 01:38:41;;;;;;;;;;;7.70;99.90;;;;;;5105874;28;20036;-65
2023/11/15 01:41:07;;;;;;;2.67;0.85;;;7.70;99.90;;;;;;5106059;28;20581;-65
2023/11/15 01:43:33;;;;;;;3.22;1.30;;;7.70;99.90;;;;;;5105945;27;20047;-65
2023/11/15 01:46:03;;;;;;;1.85;0.80;;;7.70;99.90;;;;;;5105476;28;20051;-65
2023/11/15 01:48:30;;;;;;;4.35;1.50;;;7.70;99.90;;;;;;5104327;27;20257;-65
2023/11/15 01:50:56;;;;;;;3.75;1.40;;;7.70;99.90;;;;;;5105620;28;20107;-64
2023/11/15 01:53:24;;;;;;;5.22;1.85;;;7.80;99.90;;;;;;5105680;28;20135;-65
2023/11/15 01:55:51;;;;;;;6.13;2.17;;;7.80;99.90;;;;;;5105558;28;20059;-65
2023/11/15 01:58:18;;;;;;;4.63;1.77;;;7.80;99.90;;;;;;5105726;28;20043;-65
2023/11/15 02:00:45;;;;;;;9.15;3.05;;;7.80;99.90;;;;;;5104097;27;20043;-65
2023/11/15 02:03:11;;;;;;;6.25;2.45;;;7.80;99.90;;;;;;5102859;28;20742;-65
2023/11/15 02:05:37;;;;;;;9.15;2.40;;;7.80;99.90;;;;;;5105558;28;20044;-65
2023/11/15 02:08:04;;;;;;;7.28;2.85;;;7.80;99.90;;;;;;5101121;28;20047;-65
2023/11/15 02:10:30;;;;;;;6.68;2.00;;;7.80;99.90;;;;;;5099408;28;20513;-65
2023/11/15 02:12:56;;;;;;;7.47;2.72;;;7.80;99.90;;;;;;5103178;28;20141;-65
2023/11/15 02:15:22;;;;;;;5.10;2.28;;;7.80;99.90;;;;;;5103735;28;20047;-65
2023/11/15 02:17:48;;;;;;;3.42;1.70;;;7.70;99.90;;;;;;5103010;28;20104;-66
2023/11/15 02:20:17;;;;;;;3.40;2.03;;;7.80;99.90;;;;;;5109698;27;20031;-65
2023/11/15 02:22:48;;;;;;;4.97;2.05;;;7.80;99.90;;;;;;5100742;28;20046;-65
2023/11/15 02:25:15;;;;;;;11.02;2.90;;;7.80;99.90;;;;;;5104358;28;20934;-65
2023/11/15 02:27:42;;;;;;;6.97;1.90;;;7.80;99.90;;;;;;5104956;28;20044;-65
2023/11/15 02:30:08;;;;;;;5.03;2.20;;;7.80;99.90;;;;;;5093652;28;20150;-65
2023/11/15 02:32:41;;;;;;;6.75;1.83;;;7.80;99.90;;;;;;5083526;28;20075;-65
2023/11/15 02:35:07;;;;;;;5.78;1.85;;;7.80;99.90;;;;;;5081666;28;20036;-65
2023/11/15 02:37:34;;;;;;;7.40;1.92;;;7.80;99.90;;;;;;5085133;28;20123;-65
2023/11/15 02:40:04;;;;;;;7.45;1.70;;;7.80;99.90;;;;;;5084557;28;20514;-65
2023/11/15 02:42:31;;;;;;;4.97;1.38;;;7.70;99.90;;;;;;5083899;28;20165;-65
2023/11/15 02:45:00;;;;;;;8.32;1.70;;;7.70;99.90;;;;;;5083867;28;20100;-65
2023/11/15 02:47:28;;;;;;;7.25;1.60;;;7.70;99.90;;;;;;5083304;28;20036;-65
2023/11/15 02:50:00;;;;;;;4.22;1.33;;;7.70;99.90;;;;;;5082997;28;20078;-65
2023/11/15 02:52:28;;;;;;;5.22;1.20;;;7.70;99.90;;;;;;5084448;28;20040;-65
2023/11/15 02:54:55;;;;;;;4.30;1.20;;;7.70;99.90;;;;;;5084776;28;20415;-65
2023/11/15 02:57:23;;;;;;;5.13;1.45;;;7.70;99.90;;;;;;5084003;28;20051;-65
2023/11/15 02:59:49;;;;;;;5.72;1.20;;;7.70;99.90;;;;;;5083959;28;20659;-64
2023/11/15 03:02:14;;;;;;;;;;;7.70;99.90;;;;;;5083133;28;20048;-66
2023/11/15 03:04:40;;;;;;;7.85;1.63;;;7.70;99.90;;;;;;5085105;28;20497;-65
2023/11/15 03:07:06;;;;;;;5.28;1.25;;;7.70;99.90;;;;;;5085026;28;20582;-65
2023/11/15 03:09:32;;;;;;;;;;;7.70;99.90;;;;;;5084492;28;20108;-66
2023/11/15 03:11:57;;;;;;;3.22;1.02;;;7.70;99.90;;;;;;5080448;28;19980;-66
2023/11/15 03:14:23;;;;;;;4.30;0.85;;;7.70;99.90;;;;;;5080210;28;20043;-66
2023/11/15 03:16:48;;;;;;;;;;;7.70;99.90;;;;;;5084106;28;20043;-66
2023/11/15 03:19:14;;;;;;;8.00;1.40;;;7.70;99.90;;;;;;5084179;28;19923;-66
2023/11/15 03:21:39;;;;;;;;;;;7.60;99.90;;;;;;5084582;28;20146;-64
2023/11/15 03:24:05;;;;;;;0.93;0.60;;;7.50;99.90;;;;;;5083459;28;19927;-66
2023/11/15 03:26:31;;;;;;;3.00;0.80;;;7.50;99.90;;;;;;5080749;28;20112;-66
2023/11/15 03:28:57;;;;;;;;;;;7.40;99.90;;;;;;5084080;28;20036;-66
2023/11/15 03:31:22;;;;;;;1.63;0.52;;;7.40;99.90;;;;;;5083070;28;19936;-66
2023/11/15 03:33:50;;;;;;;1.38;0.60;;;7.40;99.90;;;;;;5084080;28;20749;-66
2023/11/15 03:36:16;;;;;;;1.88;0.50;;;7.30;99.90;;;;;;5087012;28;20046;-65
2023/11/15 03:38:42;;;;;;;1.02;0.40;;;7.30;99.90;;;;;;5084260;28;20048;-66
2023/11/15 03:41:08;;;;;;;;;;;7.40;99.90;;;;;;5084234;28;20388;-66
2023/11/15 03:43:38;;;;;;;5.28;0.57;;;7.40;99.90;;;;;;5084302;28;19981;-65
2023/11/15 03:46:04;;;;;;;0.30;0.30;;;7.40;99.90;;;;;;5083709;28;20568;-65
2023/11/15 03:48:30;;;;;;;1.17;0.40;;;7.40;99.90;;;;;;5084635;28;20050;-66
2023/11/15 03:50:58;;;;;;;2.83;0.40;;;7.40;99.90;;;;;;5083970;28;20466;-66
2023/11/15 03:53:24;;;;;;;2.90;0.70;;;7.40;99.90;;;;;;5084437;28;20043;-65
2023/11/15 03:55:52;;;;;;;0.40;0.40;;;7.30;99.90;;;;;;5084011;28;20086;-66
2023/11/15 03:58:17;;;;;;;0.85;0.30;;;7.30;99.90;;;;;;5084520;28;20032;-63
2023/11/15 04:00:43;;;;;;;0.60;0.30;;;7.30;99.90;;;;;;5089292;28;20551;-65
2023/11/15 04:03:08;;;;;;;0.40;0.35;;;7.30;99.90;;;;;;5082701;28;20568;-67
2023/11/15 04:05:34;;;;;;;0.60;0.40;;;7.30;99.90;;;;;;5087257;28;20411;-67
2023/11/15 04:07:59;;;;;;;1.27;0.20;;;7.30;99.90;;;;;;5088608;28;20039;-65
2023/11/15 04:10:25;;;;;;;;;;;7.30;99.90;;;;;;5085236;28;20458;-66
2023/11/15 04:12:54;;;;;;;0.68;0.40;;;7.30;99.90;;;;;;5082601;28;19920;-66
2023/11/15 04:15:23;;;;;;;6.40;0.80;;;7.40;99.90;;;;;;5090575;28;20118;-66
2023/11/15 04:17:49;;;;;;;2.83;0.80;;;7.40;99.90;;;;;;5070284;28;20052;-65
2023/11/15 04:20:18;;;;;;;0.50;0.45;;;7.40;99.90;;;;;;5085017;28;20040;-66
2023/11/15 04:22:44;;;;;;;0.52;0.43;;;7.40;99.90;;;;;;5086956;28;20651;-64
2023/11/15 04:25:10;;;;;;;0.65;0.30;;;7.40;99.90;;;;;;5086907;28;20115;-65
2023/11/15 04:27:36;;;;;;;1.02;0.32;;;7.40;99.90;;;;;;5087515;28;20197;-65
2023/11/15 04:30:02;;;;;;;0.63;0.30;;;7.40;99.90;;;;;;5086744;28;20119;-66
2023/11/15 04:32:27;;;;;;;0.40;0.30;;;7.40;99.90;;;;;;5105072;27;20050;-65
2023/11/15 04:34:53;;;;;;;3.13;0.50;;;7.40;99.90;;;;;;5106209;27;20036;-64
2023/11/15 04:37:19;;;;;;;0.77;0.43;;;7.40;99.90;;;;;;5101502;27;20078;-64
2023/11/15 04:39:47;;;;;;;0.32;0.20;;;7.30;99.90;;;;;;5107722;28;20071;-65
2023/11/15 04:42:13;;;;;;;6.22;0.95;;;7.30;99.90;;;;;;5102871;28;20044;-65
2023/11/15 04:44:39;;;;;;;0.82;0.20;;;7.30;99.90;;;;;;5107136;28;20096;-64
2023/11/15 04:47:05;;;;;;;;;;;7.30;99.90;;;;;;5107509;28;20729;-65
2023/11/15 04:49:31;;;;;;;3.22;0.30;;;7.20;99.90;;;;;;5109342;27;19930;-64
2023/11/15 04:51:57;;;;;;;0.43;0.20;;;7.20;99.90;;;;;;5106056;27;20048;-65
2023/11/15 04:54:22;;;;;;;2.03;0.30;;;7.20;99.90;;;;;;5106931;28;20043;-65
2023/11/15 04:56:48;;;;;;;0.65;0.30;;;7.20;99.90;;;;;;5104995;27;20177;-66
2023/11/15 04:59:14;;;;;;;0.65;0.20;;;7.20;99.90;;;;;;5103515;27;20046;-66
2023/11/15 05:01:41;;;;;;;3.78;0.30;;;7.20;99.90;;;;;;5100916;27;20059;-67
2023/11/15 05:04:07;;;;;;;0.75;0.45;;;7.20;99.90;;;;;;5099783;28;20046;-66
2023/11/15 05:06:33;;;;;;;1.85;0.30;;;7.10;99.90;;;;;;5099973;28;20593;-65
2023/11/15 05:08:59;;;;;;;2.28;0.73;;;7.20;99.90;;;;;;5104363;28;20043;-66
2023/11/15 05:11:25;;;;;;;;;;;7.10;99.90;;;;;;5100471;28;20085;-66
2023/11/15 05:13:51;;;;;;;3.22;0.50;;;7.10;99.90;;;;;;5104763;28;19919;-64
2023/11/15 05:16:17;;;;;;;2.53;0.52;;;7.10;99.90;;;;;;5092354;28;20036;-65
2023/11/15 05:18:42;;;;;;;;;;;7.20;99.90;;;;;;5097502;28;20044;-66
2023/11/15 05:21:08;;;;;;;0.50;0.30;;;7.10;99.90;;;;;;5088668;28;19920;-65
2023/11/15 05:23:33;;;;;;;1.88;0.35;;;7.10;99.90;;;;;;5102301;28;20168;-65
2023/11/15 05:25:59;;;;;;;0.88;0.35;;;7.10;99.90;;;;;;5105671;28;20043;-65
2023/11/15 05:28:25;;;;;;;;;;;7.10;99.90;;;;;;5096676;28;20359;-65
2023/11/15 05:30:51;;;;;;;4.18;0.40;;;7.10;99.90;;;;;;5100674;28;19930;-65
2023/11/15 05:33:17;;;;;;;0.73;0.30;;;7.20;99.90;;;;;;5105636;28;20046;-65
2023/11/15 05:35:43;;;;;;;0.30;0.30;;;7.10;99.90;;;;;;5106290;28;20047;-65
2023/11/15 05:38:08;;;;;;;1.00;0.40;;;7.10;99.90;;;;;;5104856;28;20035;-66
2023/11/15 05:40:34;;;;;;;;;;;7.10;99.90;;;;;;5106933;28;20067;-66
2023/11/15 05:43:00;;;;;;;2.03;0.40;;;7.10;99.90;;;;;;5106314;28;19916;-66
2023/11/15 05:45:25;;;;;;;1.05;0.30;;;7.10;99.90;;;;;;5105457;28;20039;-65
2023/11/15 05:47:51;;;;;;;;;;;7.10;99.90;;;;;;5108198;27;20047;-65
2023/11/15 05:50:17;;;;;;;1.90;0.40;;;7.10;99.90;;;;;;5104760;27;19919;-65
2023/11/15 05:52:43;;;;;;;1.38;0.60;;;7.10;99.90;;;;;;5105424;28;20031;-65
2023/11/15 05:55:13;;;;;;;4.40;0.57;;;7.10;99.90;;;;;;5100747;27;20040;-66
2023/11/15 05:57:38;;;;;;;1.67;0.52;;;7.10;99.90;;;;;;5107346;27;20052;-66
2023/11/15 06:00:18;;;;;;;0.77;0.60;;;7.10;99.90;;;;;;5105502;27;20032;-65
2023/11/15 06:02:48;;;;;;;7.15;1.23;;;7.10;99.90;;;;;;5103129;28;20135;-65
2023/11/15 06:05:17;;;;;;;4.68;1.65;;;7.10;99.90;;;;;;5105762;27;20039;-65
2023/11/15 06:07:43;;;;;;;3.13;1.20;;;7.10;99.90;;;;;;5107723;27;20042;-64
2023/11/15 06:10:10;;;;;;;5.63;1.23;;;7.10;99.90;;;;;;5104394;27;20035;-64
2023/11/15 06:12:37;;;;;;;2.80;1.77;;;7.10;99.90;;;;;;5101566;27;20046;-67
2023/11/15 06:15:05;;;;;;;7.55;1.98;;;7.20;99.90;;;;;;5106124;28;20062;-68
2023/11/15 06:17:31;;;;;;;7.80;1.95;;;7.10;99.90;;;;;;5100490;28;20082;-67
2023/11/15 06:19:57;;;;;;;8.90;2.15;;;7.20;99.90;;;;;;5104776;27;20071;-66
2023/11/15 06:22:23;;;;;;;9.25;2.70;;;7.20;99.90;;;;;;5102990;27;20036;-65
2023/11/15 06:24:53;;;;;;;6.43;2.33;;;7.20;99.90;;;;;;5100343;27;21048;-68
2023/11/15 06:27:19;;;;;;;8.25;2.75;;;7.20;99.90;;;;;;5098694;27;20044;-67
2023/11/15 06:29:49;;;;;;;13.00;3.15;;;7.30;99.90;;;;;;5100903;28;20195;-66
2023/11/15 06:32:16;;;;;;;9.15;2.92;;;7.30;99.90;;;;;;5096919;28;20050;-66
2023/11/15 06:34:45;;;;;;;13.48;3.03;;;7.30;99.90;;;;;;5100269;28;20028;-66
2023/11/15 06:37:12;;;;;;;11.95;3.20;;;7.30;99.90;;;;;;5100237;28;20097;-65
2023/11/15 06:39:40;;;;;;;7.97;3.28;;;7.30;99.90;;;;;;5098839;27;20398;-64
2023/11/15 06:42:05;;;;;;;9.88;3.20;;;7.30;99.90;;;;;;5096198;27;20043;-66
2023/11/15 06:44:31;;;;;;;16.58;3.00;;;7.30;99.90;;;;;;5101089;28;20040;-66
2023/11/15 06:46:56;;;;;;;9.48;3.13;;;7.30;99.90;;;;;;5106009;28;20040;-64
2023/11/15 06:49:22;;;;;;;11.35;3.63;;;7.30;99.90;;;;;;5099208;28;20112;-65
2023/11/15 06:51:49;;;;;;;;;;;7.40;99.90;;;;;;5103458;28;20039;-66
2023/11/15 06:54:15;;;;;;;10.77;3.10;;;7.40;99.90;;;;;;5104392;28;19919;-66
2023/11/15 06:56:43;;;;;;;8.52;2.53;;;7.40;99.90;;;;;;5105322;28;20045;-64
2023/11/15 06:59:13;;;;;;;5.05;2.53;;;7.30;99.90;;;;;;5096985;28;20082;-66
2023/11/15 07:01:49;;;;;;;7.93;2.50;;;7.30;99.90;;;;;;5101734;28;20093;-67
2023/11/15 07:04:21;;;;;;;9.75;3.25;;;7.30;99.90;;;;;;5104783;28;20046;-62
2023/11/15 07:06:47;;;;;;;8.75;2.25;;;7.30;99.90;;;;;;5102384;28;20040;-66
2023/11/15 07:09:16;;;;;;;7.53;2.42;;;7.30;99.90;;;;;;5099468;28;20553;-66
2023/11/15 07:11:56;;;;;;;7.00;2.40;;;7.30;99.90;;;;;;5103854;28;20035;-67
2023/11/15 07:14:26;;;;;;;6.03;2.72;;;7.30;99.90;;;;;;5103003;28;20039;-66
2023/11/15 07:17:00;;;;;;;7.82;2.22;;;7.30;99.90;;;;;;5098877;28;20039;-66
2023/11/15 07:19:27;;;;;;;6.78;2.55;;;7.30;99.90;;;;;;5104149;28;20422;-68
2023/11/15 07:21:53;;;;;;;6.70;2.42;;;7.40;99.90;;;;;;5102278;28;20530;-66
2023/11/15 07:24:20;;;;;;;7.25;2.60;;;7.40;99.90;;;;;;5099758;28;20039;-66
2023/11/15 07:26:49;;;;;;;10.70;2.60;;;7.50;99.90;;;;;;5102418;28;20146;-66
2023/11/15 07:29:18;;;;;;;11.68;3.05;;;7.50;99.90;;;;;;5103354;28;20375;-66
2023/11/15 07:31:47;;;;;;;8.15;2.65;;;7.50;99.90;;;;;;5106353;28;20658;-66
2023/11/15 07:34:13;;;;;;;7.53;2.63;;;7.50;99.90;;;;;;5107671;28;20062;-66
2023/11/15 07:36:39;;;;;;;10.65;2.95;;;7.60;99.90;;;;;;5107630;28;20041;-66
2023/11/15 07:39:04;;;;;;;;;;;7.60;99.90;;;;;;5108539;28;20031;-66
2023/11/15 07:41:31;;;;;;;13.65;3.35;;;7.60;99.90;;;;;;5106769;28;19916;-66
2023/11/15 07:43:58;;;;;;;9.18;2.28;;;7.60;99.90;;;;;;5107998;28;20058;-66
2023/11/15 07:46:24;;;;;;;12.73;3.28;;;7.60;99.90;;;;;;5106516;28;20075;-67
2023/11/15 07:48:50;;;;;;;10.05;2.58;;;7.60;99.90;;;;;;5105130;28;20040;-66
2023/11/15 07:51:19;;;;;;;7.85;2.50;;;7.70;99.90;;;;;;5107303;28;20449;-65
2023/11/15 07:53:48;;;;;;;12.48;2.65;;;7.80;99.90;;;;;;5107597;27;20035;-65
2023/11/15 07:56:15;;;;;;;8.95;2.88;;;7.90;99.90;;;;;;5107807;28;20104;-65
2023/11/15 07:58:40;;;;;;;10.80;2.72;;;7.90;99.90;;;;;;5107565;27;20573;-65
2023/11/15 08:01:09;;;;;;;;;;;7.90;99.90;;;;;;5106850;28;20040;-67
2023/11/15 08:03:35;;;;;;;9.45;2.53;;;7.90;99.90;;;;;;5098726;27;20006;-66
2023/11/15 08:06:01;;;;;;;10.70;2.60;;;7.80;99.90;;;;;;5102189;28;20135;-65
2023/11/15 08:08:27;;;;;;;7.47;2.10;;;7.90;99.90;;;;;;5106295;28;20611;-64
2023/11/15 08:10:53;;;;;;;10.65;2.22;;;7.90;99.90;;;;;;5099311;28;20036;-63
2023/11/15 08:13:19;;;;;;;4.18;1.98;;;7.90;99.90;;;;;;5104881;28;20118;-65
2023/11/15 08:15:48;;;;;;;7.60;1.50;;;7.90;99.90;;;;;;5108312;28;20035;-66
2023/11/15 08:18:15;;;;;;;6.28;1.90;;;7.90;99.90;;;;;;5105869;27;20056;-67
2023/11/15 08:20:45;;;;;;;4.93;1.58;;;7.90;99.90;;;;;;5105000;28;20035;-66
2023/11/15 08:23:12;;;;;;;11.00;1.98;;;7.90;99.90;;;;;;5108164;28;20426;-67
2023/11/15 08:25:47;;;;;;;5.35;1.70;;;8.00;99.90;;;;;;5104412;28;20049;-64
2023/11/15 08:28:13;;;;;;;6.97;1.83;;;8.00;99.90;;;;;;5107967;28;20379;-67
2023/11/15 08:30:39;;;;;;;8.38;2.00;;;8.00;99.90;;;;;;5103534;28;20670;-65
2023/11/15 08:33:05;;;;;;;;;;;8.00;99.90;;;;;;5106834;27;20042;-66
2023/11/15 08:35:31;;;;;;;12.87;2.40;;;7.90;99.90;;;;;;5106359;28;19959;-63
2023/11/15 08:37:58;;;;;;;7.32;2.20;;;7.90;99.90;;;;;;5103904;28;20070;-62
2023/11/15 08:40:25;;;;;;;9.75;2.05;;;7.90;99.90;;;;;;5101858;27;20047;-67
2023/11/15 08:42:51;;;;;;;12.40;2.85;;;8.00;99.90;;;;;;5106241;27;20506;-67
2023/11/15 08:45:20;;;;;;;4.60;1.80;;;8.00;99.90;;;;;;5107600;27;20039;-66
2023/11/15 08:47:46;;;;;;;5.13;1.85;;;8.10;99.90;;;;;;5107995;27;20044;-66
2023/11/15 08:50:14;;;;;;;;;;;8.10;99.90;;;;;;5107083;28;20395;-68
2023/11/15 08:52:39;;;;;;;11.65;2.10;;;8.20;99.90;;;;;;5108558;27;19922;-67
2023/11/15 08:55:06;;;;;;;;;;;8.20;99.90;;;;;;5105657;28;20044;-67
2023/11/15 08:57:32;;;;;;;10.43;2.50;;;8.20;99.90;;;;;;5102537;27;19923;-65
2023/11/15 08:59:57;;;;;;;7.10;1.60;;;8.20;99.90;;;;;;5108570;27;20383;-67
2023/11/15 09:02:24;;;;;;;;;;;8.20;99.90;;;;;;5105519;28;20719;-66
2023/11/15 09:04:53;;;;;;;10.95;2.05;;;8.30;99.90;;;;;;5106400;28;19919;-66
2023/11/15 09:07:19;;;;;;;8.65;1.45;;;8.30;99.90;;;;;;5107344;28;20096;-65
2023/11/15 09:09:46;;;;;;;;;;;8.30;99.90;;;;;;5101490;27;23294;-65
2023/11/15 09:12:12;;;;;;;5.53;1.27;;;8.30;99.90;;;;;;5106743;28;19964;-67
2023/11/15 09:14:38;;;;;;;5.45;1.20;;;8.30;99.90;;;;;;5104967;28;20052;-65
2023/11/15 09:17:07;;;;;;;4.15;1.02;;;8.30;99.90;;;;;;5107463;28;20044;-65
2023/11/15 09:19:33;;;;;;;6.75;1.60;;;8.30;99.90;;;;;;5106370;28;20047;-64
2023/11/15 09:22:01;;;;;;;;;;;8.20;99.90;;;;;;5106677;27;20036;-65
2023/11/15 09:24:29;;;;;;;3.63;0.95;;;8.30;99.90;;;;;;5104892;28;19950;-66
2023/11/15 09:26:56;;;;;;;4.70;1.00;;;8.30;99.90;;;;;;5095215;28;20533;-67
2023/11/15 09:29:25;;;;;;;6.57;1.65;;;8.20;99.90;;;;;;5106494;28;20051;-65
2023/11/15 09:31:52;;;;;;;5.45;1.35;;;8.20;99.90;;;;;;5105339;27;20028;-67
2023/11/15 09:34:17;;;;;;;7.75;1.55;;;8.30;99.90;;;;;;5106993;28;20070;-65
2023/11/15 09:36:43;;;;;;;;;;;8.40;99.90;;;;;;5107093;28;20055;-66
2023/11/15 09:39:16;;;;;;;3.97;1.40;;;8.40;99.90;;;;;;5104077;28;19920;-66
2023/11/15 09:41:48;;;;;;;5.50;1.40;;;8.50;99.90;;;;;;5096272;28;20788;-65
2023/11/15 09:44:18;;;;;;;13.50;2.20;;;8.50;99.90;;;;;;5106395;28;20039;-65
2023/11/15 09:46:45;;;;;;;5.18;1.63;;;8.40;99.90;;;;;;5106033;28;20123;-65
2023/11/15 09:49:14;;;;;;;8.82;2.35;;;8.40;99.90;;;;;;5106508;28;20047;-65
2023/11/15 09:51:40;;;;;;;7.95;1.90;;;8.40;99.90;;;;;;5097416;28;20649;-66
2023/11/15 09:54:07;;;;;;;7.60;2.05;;;8.50;99.90;;;;;;5106277;28;20081;-66
2023/11/15 09:56:35;;;;;;;13.02;1.77;;;8.50;99.90;;;;;;5111964;27;20043;-65
2023/11/15 09:59:02;;;;;;;12.00;2.55;;;8.50;99.90;;;;;;5102994;28;20096;-67
2023/11/15 10:01:27;;;;;;;6.90;1.75;;;8.60;99.90;;;;;;5101681;28;20693;-66
2023/11/15 10:03:53;;;;;;;;;;;8.60;99.90;;;;;;5104877;28;20141;-65
2023/11/15 10:06:19;;;;;;;10.55;1.77;;;8.60;99.90;;;;;;5104385;28;20395;-65
2023/11/15 10:08:54;;;;;;;14.45;2.60;;;8.60;99.90;;;;;;5098527;27;20399;-66
2023/11/15 10:11:24;;;;;;;7.35;1.75;;;8.70;99.90;;;;;;5096940;28;20608;-66
2023/11/15 10:14:06;;;;;;;10.70;2.22;;;8.60;99.90;;;;;;5097423;28;20537;-66
2023/11/15 10:16:34;;;;;;;9.27;2.10;;;8.50;99.90;;;;;;5103839;28;20048;-67
2023/11/15 10:19:00;;;;;;;11.90;2.35;;;8.40;99.90;;;;;;5107293;27;20122;-67
2023/11/15 10:21:28;;;;;;;8.73;2.13;;;8.40;99.90;;;;;;5109913;27;20067;-66
2023/11/15 10:24:10;;;;;;;9.38;2.30;;;8.20;99.90;;;;;;5105032;28;20039;-64
2023/11/15 10:26:39;;;;;;;6.88;1.65;;;8.20;99.90;;;;;;5105097;28;20071;-66
2023/11/15 10:29:12;;;;;;;10.32;2.00;;;8.30;99.90;;;;;;5106309;28;20040;-65
2023/11/15 10:32:00;;;;;;;9.15;2.00;;;8.40;99.90;;;;;;5101704;28;20051;-65
2023/11/15 10:34:31;;;;;;;9.85;2.10;;;8.40;99.90;;;;;;5104044;28;20190;-67
2023/11/15 10:37:05;;;;;;;10.75;2.28;;;8.50;99.90;;;;;;5100389;28;20040;-66
2023/11/15 10:39:32;;;;;;;11.32;2.75;;;8.50;99.90;;;;;;5099222;28;20686;-65
2023/11/15 10:42:00;;;;;;;6.72;2.20;;;8.60;99.90;;;;;;5097788;28;20055;-65
2023/11/15 10:44:28;;;;;;;8.57;1.75;;;8.70;99.90;;;;;;5102645;28;20091;-66
2023/11/15 10:47:01;;;;;;;11.35;3.00;;;8.70;99.90;;;;;;5103591;28;20039;-67
2023/11/15 10:49:30;;;;;;;6.38;1.63;;;8.80;99.90;;;;;;5103334;28;20058;-67
2023/11/15 10:51:56;;;;;;;8.73;1.85;;;8.80;99.90;;;;;;5103920;28;20048;-65
2023/11/15 10:54:22;;;;;;;14.30;3.30;;;8.90;99.90;;;;;;5104704;28;20041;-65
2023/11/15 10:56:49;;;;;;;9.40;2.83;;;8.90;99.90;;;;;;5102289;28;20043;-64
2023/11/15 10:59:17;;;;;;;10.38;2.20;;;8.80;99.90;;;;;;5105215;27;20053;-65
2023/11/15 11:01:44;;;;;;;10.50;2.33;;;8.70;99.90;;;;;;5102750;28;20667;-67
2023/11/15 11:04:12;;;;;;;10.63;2.58;;;8.70;99.90;;;;;;5105410;28;20040;-65
2023/11/15 11:06:50;;;;;;;8.15;1.98;;;8.60;99.90;;;;;;5102709;28;20040;-64
2023/11/15 11:09:22;;;;;;;8.38;2.25;;;8.60;99.90;;;;;;5100985;28;20051;-66
2023/11/15 11:11:54;;;;;;;10.30;2.25;;;8.60;99.90;;;;;;5104259;28;20043;-65
2023/11/15 11:14:27;;;;;;;13.90;2.65;;;8.60;99.90;;;;;;5103505;28;20028;-66
2023/11/15 11:16:56;;;;;;;10.50;1.70;;;8.70;99.90;;;;;;5100367;28;20031;-65
2023/11/15 11:19:24;;;;;;;6.20;1.80;;;8.70;99.90;;;;;;5104760;28;20048;-66
2023/11/15 11:22:08;;;;;;;8.93;2.22;;;8.70;99.90;;;;;;5099640;28;20861;-65
2023/11/15 11:24:48;;;;;;;15.05;2.30;;;8.70;99.90;;;;;;5105043;28;20046;-65
2023/11/15 11:27:14;;;;;;;10.63;1.90;;;8.60;99.90;;;;;;5101603;28;20039;-65
2023/11/15 11:29:49;;;;;;;;;;;8.50;99.90;;;;;;5104012;28;20027;-65
2023/11/15 11:32:26;;;;;;;8.80;1.85;;;8.50;99.90;;;;;;5094812;28;19919;-65
2023/11/15 11:35:07;;;;;;;7.95;1.85;;;8.50;99.90;;;;;;5102373;28;20031;-65
2023/11/15 11:37:53;;;;;;;9.70;2.15;;;8.50;99.90;;;;;;5094963;28;20146;-64
2023/11/15 11:40:23;;;;;;;9.90;1.42;;;8.40;99.90;;;;;;5093765;28;20096;-65
2023/11/15 11:42:54;;;;;;;5.72;1.20;;;8.30;99.90;;;;;;5096841;28;20063;-64
2023/11/15 11:45:23;;;;;;;4.75;1.02;;;8.10;99.90;;;;;;5100802;28;20036;-65
2023/11/15 11:47:48;;;;;;;3.78;1.10;;;8.00;99.90;;;;;;5096151;28;20078;-65
2023/11/15 11:50:17;;;;;;;;;;;8.10;99.90;;;;;;5095056;28;20088;-64
2023/11/15 11:52:44;;;;;;;2.38;0.80;;;8.20;99.90;;;;;;5103195;28;19916;-64
2023/11/15 11:55:10;;;;;;;5.85;1.75;;;8.30;99.90;;;;;;5102600;28;20035;-64
2023/11/15 11:57:35;;;;;;;4.57;1.05;;;8.50;99.90;;;;;;5104583;28;20254;-65
2023/11/15 12:00:38;;;;;;;;;;;8.60;99.90;;;;;;5107754;28;20563;-66
2023/11/15 12:02:57;;;;;;;5.45;1.88;;;8.60;99.90;;;;;;5097737;28;19919;-65
2023/11/15 12:05:23;;;;;;;;;;;8.40;99.90;;;;;;5104455;28;20679;-65
2023/11/15 12:07:51;;;;;;;7.20;1.98;;;8.40;99.90;;;;;;5107208;28;19928;-62
2023/11/15 12:10:18;;;;;;;10.35;1.80;;;8.30;99.90;;;;;;5101240;28;20036;-65
2023/11/15 12:12:56;;;;;;;5.53;1.42;;;8.20;99.90;;;;;;5104021;28;20050;-64
2023/11/15 12:15:24;;;;;;;9.02;2.10;;;8.20;99.90;;;;;;5103263;28;20047;-65
2023/11/15 12:17:51;;;;;;;8.35;1.63;;;8.30;99.90;;;;;;5100506;28;20138;-64
2023/11/15 12:20:27;;;;;;;6.20;1.48;;;;;;;;;;5105020;28;20047;-65
2023/11/15 12:23:08;;;;;;;9.15;2.15;;;;;;;;;;5106631;28;20051;-65
2023/11/15 12:25:43;;;;;;;7.95;2.00;;;;;;;;;;5107110;28;20069;-65
2023/11/15 12:28:09;;;;;;;7.95;2.28;;;;;;;;;;5104718;28;20111;-65
2023/11/15 12:30:35;;;;;;;4.60;1.67;;;;;;;;;;5105828;27;20039;-64
2023/11/15 12:33:02;;;;;;;7.07;3.15;;;;;;;;;;5102340;28;20038;-64
2023/11/15 12:35:32;;;;;;;10.25;1.65;;;;;;;;;;5107707;28;20126;-65
2023/11/15 12:38:05;;;;;;;1.98;0.88;;;;;;;;;;5104483;28;20159;-65
2023/11/15 12:40:34;;;;;;;4.55;1.33;;;;;;;;;;5107279;27;20078;-65
2023/11/15 12:43:30;;;;;;;3.75;0.70;;;;;;;;;;5104253;28;20122;-64
2023/11/15 12:45:56;;;;;;;1.60;0.60;;;;;;;;;;5107285;27;20372;-65
2023/11/15 12:48:23;;;;;;;2.40;0.77;;;;;;;;;;5105895;27;20065;-65
2023/11/15 12:50:49;;;;;;;3.83;0.90;;;;;;;;;;5107068;27;20036;-65
2023/11/15 12:53:17;;;;;;;2.28;0.65;;;;;;;;;;5106284;27;20063;-64
2023/11/15 12:55:49;;;;;;;2.15;0.80;;;;;;;;;;5107724;27;20073;-64
2023/11/15 12:58:15;;;;;;;2.10;0.60;;;;;;;;;;5107257;28;20529;-65
2023/11/15 13:03:19;;;;;;;7.88;0.80;;;;;;;;;;4995613;28;20046;-66
2023/11/15 13:05:45;;;;;;;4.93;1.00;;;;;;;;;;5002865;28;20049;-66
2023/11/15 13:08:11;;;;;;;4.90;1.00;;;;;;;;;;5003216;28;20042;-65
2023/11/15 13:10:40;;;;;;;2.42;0.90;;;;;;;;;;5003402;28;20577;-66
2023/11/15 13:13:11;;;;;;;9.57;1.20;;;;;;;;;;5005859;28;20120;-64
2023/11/15 13:15:40;;;;;;;13.98;5.72;;;;;;;;;;5005514;28;20049;-65